Time;durP1;ratioP1;P1;durP2;ratioP2;P2;SDS_P1;SDS_P2;PMS_P1;PMS_P2;Temp;Humidity;BMP_temperature;BMP_pressure;BME280_temperature;BME280_humidity;BME280_pressure;Samples;Min_cycle;Max_cycle;Signal;HPM_P1;HPM_P2
2022/04/11 00:02:23;;;;;;;4.03;2.00;;;15.10;84.10;;;;;;5095196;28;20043;-61
2022/04/11 00:04:49;;;;;;;4.75;2.22;;;15.00;81.30;;;;;;5076914;28;20044;-63
2022/04/11 00:07:15;;;;;;;5.57;2.35;;;15.30;84.30;;;;;;5087741;28;20040;-62
2022/04/11 00:09:42;;;;;;;5.22;2.25;;;15.10;84.10;;;;;;5091314;28;20418;-62
2022/04/11 00:12:09;;;;;;;6.53;2.08;;;15.00;84.00;;;;;;5075138;28;20049;-62
2022/04/11 00:14:35;;;;;;;4.55;1.92;;;;;;;;;;5074825;28;20053;-63
2022/04/11 00:17:01;;;;;;;4.25;2.17;;;15.00;84.00;;;;;;5080295;28;20047;-62
2022/04/11 00:19:26;;;;;;;5.60;2.03;;;15.30;84.20;;;;;;5093638;28;20048;-62
2022/04/11 00:21:52;;;;;;;4.15;1.98;;;15.10;81.40;;;;;;5094064;28;20048;-62
2022/04/11 00:24:18;;;;;;;3.22;1.90;;;15.00;84.00;;;;;;5090733;28;20390;-62
2022/04/11 00:26:43;;;;;;;4.55;2.00;;;15.10;84.10;;;;;;5084053;28;20044;-62
2022/04/11 00:29:09;;;;;;;5.82;2.40;;;15.00;84.00;;;;;;5075181;28;20047;-64
2022/04/11 00:31:35;;;;;;;5.47;2.00;;;;;;;;;;5073441;28;20050;-62
2022/04/11 00:34:01;;;;;;;6.25;2.17;;;15.00;83.90;;;;;;5080471;28;20040;-62
2022/04/11 00:36:27;;;;;;;3.50;1.73;;;15.00;83.80;;;;;;5092450;28;20459;-62
2022/04/11 00:38:53;;;;;;;4.63;1.85;;;15.20;84.00;;;;;;5075321;28;20075;-62
2022/04/11 00:41:18;;;;;;;4.47;1.88;;;15.10;81.20;;;;;;5074207;28;20047;-62
2022/04/11 00:43:44;;;;;;;4.32;1.75;;;15.00;83.80;;;;;;5074488;28;20135;-62
2022/04/11 00:46:10;;;;;;;5.00;1.90;;;14.90;83.90;;;;;;5074521;28;20113;-62
2022/04/11 00:48:36;;;;;;;4.65;2.08;;;15.10;83.80;;;;;;5076929;28;20045;-61
2022/04/11 00:51:10;;;;;;;3.72;1.77;;;15.00;83.60;;;;;;5093001;28;20040;-61
2022/04/11 00:53:38;;;;;;;4.65;1.85;;;14.90;82.30;;;;;;5098325;28;20496;-62
2022/04/11 00:56:04;;;;;;;4.50;1.80;;;15.00;83.60;;;;;;5074104;28;20048;-62
2022/04/11 00:58:30;;;;;;;4.80;1.98;;;14.90;80.80;;;;;;5073077;28;20094;-61
2022/04/11 01:00:56;;;;;;;5.07;1.77;;;15.10;83.60;;;;;;5088545;28;20031;-62
2022/04/11 01:03:22;;;;;;;3.70;1.77;;;14.80;83.50;;;;;;5060723;28;20105;-62
2022/04/11 01:05:48;;;;;;;5.13;1.92;;;14.90;83.40;;;;;;5076537;28;20044;-62
2022/04/11 01:08:13;;;;;;;4.07;1.88;;;15.00;83.60;;;;;;5093843;28;20043;-61
2022/04/11 01:10:39;;;;;;;6.05;2.00;;;15.10;83.50;;;;;;5090755;28;20048;-62
2022/04/11 01:13:05;;;;;;;4.15;2.00;;;14.90;83.50;;;;;;5076284;28;20144;-62
2022/04/11 01:15:31;;;;;;;3.40;1.70;;;14.60;83.40;;;;;;5093846;28;20058;-61
2022/04/11 01:17:57;;;;;;;3.65;1.60;;;14.90;83.40;;;;;;5076347;28;20099;-61
2022/04/11 01:20:22;;;;;;;4.30;2.10;;;14.70;83.30;;;;;;5073616;28;20052;-62
2022/04/11 01:22:48;;;;;;;3.90;1.80;;;14.70;80.60;;;;;;5073548;28;20041;-61
2022/04/11 01:25:14;;;;;;;3.50;1.80;;;14.80;83.60;;;;;;5081680;28;20044;-62
2022/04/11 01:27:40;;;;;;;5.38;1.88;;;14.90;83.40;;;;;;5078644;28;20056;-62
2022/04/11 01:30:07;;;;;;;5.10;1.60;;;15.00;83.40;;;;;;5074556;28;20054;-61
2022/04/11 01:32:33;;;;;;;4.50;2.00;;;14.80;83.30;;;;;;5065282;28;20051;-62
2022/04/11 01:34:59;;;;;;;4.25;1.92;;;14.80;83.20;;;;;;5093532;28;20493;-62
2022/04/11 01:37:24;;;;;;;5.30;2.00;;;14.60;80.30;;;;;;5085158;28;20036;-62
2022/04/11 01:39:50;;;;;;;4.53;2.00;;;14.70;83.20;;;;;;5071987;28;20478;-62
2022/04/11 01:42:16;;;;;;;4.40;1.92;;;14.90;80.50;;;;;;5074170;28;20090;-62
2022/04/11 01:44:41;;;;;;;4.68;1.90;;;14.70;83.20;;;;;;5074222;28;20052;-62
2022/04/11 01:47:07;;;;;;;5.07;2.10;;;14.70;83.10;;;;;;5091465;28;20044;-62
2022/04/11 01:49:33;;;;;;;4.68;1.98;;;14.80;80.50;;;;;;5073497;28;20460;-61
2022/04/11 01:51:59;;;;;;;4.28;1.80;;;14.80;83.20;;;;;;5078591;28;20397;-61
2022/04/11 01:54:24;;;;;;;4.80;2.08;;;14.90;80.50;;;;;;5093429;28;20044;-62
2022/04/11 01:56:50;;;;;;;4.18;2.00;;;14.70;80.90;;;;;;5093702;28;20048;-63
2022/04/11 01:59:16;;;;;;;4.50;1.85;;;;;;;;;;5076684;28;20540;-62
2022/04/11 02:01:43;;;;;;;5.25;2.10;;;14.80;83.20;;;;;;5074104;28;20371;-62
2022/04/11 02:04:09;;;;;;;3.85;1.88;;;14.70;83.00;;;;;;5093063;28;20048;-62
2022/04/11 02:06:35;;;;;;;4.20;1.98;;;14.60;80.30;;;;;;5093598;28;20059;-61
2022/04/11 02:09:00;;;;;;;3.90;2.13;;;14.60;83.10;;;;;;5081760;28;20060;-62
2022/04/11 02:11:26;;;;;;;5.32;2.20;;;14.50;83.20;;;;;;5073365;28;20067;-61
2022/04/11 02:13:52;;;;;;;5.95;1.98;;;14.60;83.10;;;;;;5083039;28;20044;-62
2022/04/11 02:16:18;;;;;;;4.10;2.10;;;;;;;;;;5093215;28;20476;-62
2022/04/11 02:18:44;;;;;;;5.88;2.10;;;14.60;83.00;;;;;;5089505;28;20070;-62
2022/04/11 02:21:09;;;;;;;4.97;2.20;;;14.80;83.40;;;;;;5073302;28;20045;-61
2022/04/11 02:23:35;;;;;;;4.95;2.08;;;14.50;83.00;;;;;;5077448;28;20401;-61
2022/04/11 02:26:02;;;;;;;4.75;2.08;;;14.50;83.00;;;;;;5093455;28;20047;-62
2022/04/11 02:28:28;;;;;;;4.13;2.10;;;;;;;;;;5092129;28;20439;-62
2022/04/11 02:30:54;;;;;;;3.72;2.15;;;14.50;82.80;;;;;;5076748;28;20040;-61
2022/04/11 02:33:20;;;;;;;4.68;1.95;;;;;;;;;;5075701;28;20044;-62
2022/04/11 02:35:46;;;;;;;4.88;2.38;;;14.60;82.90;;;;;;5093099;28;20052;-62
2022/04/11 02:38:11;;;;;;;5.70;2.10;;;14.70;83.50;;;;;;5076629;28;20040;-61
2022/04/11 02:40:37;;;;;;;4.03;2.00;;;14.70;83.00;;;;;;5076602;28;20055;-62
2022/04/11 02:43:03;;;;;;;4.38;2.15;;;14.60;82.90;;;;;;5076829;28;20432;-62
2022/04/11 02:45:29;;;;;;;5.97;2.17;;;14.50;80.10;;;;;;5082212;28;20043;-62
2022/04/11 02:47:54;;;;;;;5.15;2.22;;;14.30;82.70;;;;;;5096648;28;20040;-61
2022/04/11 02:50:20;;;;;;;6.30;2.40;;;14.60;82.90;;;;;;5093397;28;20055;-62
2022/04/11 02:52:47;;;;;;;3.85;2.10;;;14.80;83.00;;;;;;5076459;28;20127;-62
2022/04/11 02:55:12;;;;;;;7.38;2.35;;;14.60;82.90;;;;;;5075879;28;20084;-61
2022/04/11 02:57:38;;;;;;;4.68;2.22;;;14.60;80.20;;;;;;5076609;28;20076;-61
2022/04/11 03:00:09;;;;;;;5.90;2.10;;;14.50;82.80;;;;;;5074948;28;20478;-61
2022/04/11 03:02:34;;;;;;;4.22;2.50;;;14.60;80.20;;;;;;5068181;28;20106;-61
2022/04/11 03:05:00;;;;;;;4.85;2.05;;;14.70;82.80;;;;;;5076397;28;20048;-62
2022/04/11 03:07:27;;;;;;;6.40;2.53;;;14.40;80.50;;;;;;5075736;28;20490;-62
2022/04/11 03:09:54;;;;;;;4.72;2.20;;;14.50;82.60;;;;;;5074355;28;20553;-62
2022/04/11 03:12:20;;;;;;;5.68;1.85;;;14.60;82.60;;;;;;5080564;28;20126;-61
2022/04/11 03:14:48;;;;;;;7.85;2.30;;;14.50;79.90;;;;;;5084165;28;20123;-62
2022/04/11 03:17:15;;;;;;;5.63;2.33;;;14.40;82.60;;;;;;5084688;28;20406;-62
2022/04/11 03:19:41;;;;;;;6.50;2.30;;;14.50;80.10;;;;;;5096389;28;20048;-62
2022/04/11 03:22:07;;;;;;;3.50;1.88;;;14.50;83.00;;;;;;5096098;28;20040;-62
2022/04/11 03:24:32;;;;;;;4.53;2.20;;;14.50;82.70;;;;;;5076883;28;20063;-62
2022/04/11 03:26:58;;;;;;;5.07;2.17;;;14.30;82.50;;;;;;5076465;28;20052;-63
2022/04/11 03:29:24;;;;;;;5.22;2.53;;;14.70;82.80;;;;;;5076616;28;20123;-62
2022/04/11 03:31:50;;;;;;;5.40;2.30;;;;;;;;;;5074406;28;20074;-62
2022/04/11 03:34:16;;;;;;;5.88;2.20;;;;;;;;;;5077114;28;20397;-64
2022/04/11 03:36:42;;;;;;;4.75;2.05;;;14.50;82.70;;;;;;5075757;28;20059;-62
2022/04/11 03:39:08;;;;;;;5.63;1.85;;;14.20;82.80;;;;;;5076333;28;20401;-62
2022/04/11 03:41:33;;;;;;;4.38;1.90;;;14.50;82.70;;;;;;5075733;28;20048;-62
2022/04/11 03:43:59;;;;;;;4.75;2.25;;;;;;;;;;5076781;28;20131;-62
2022/04/11 03:46:27;;;;;;;4.35;1.98;;;14.30;79.90;;;;;;5075714;28;20049;-62
2022/04/11 03:48:53;;;;;;;5.22;2.50;;;14.30;82.50;;;;;;5076076;28;20072;-62
2022/04/11 03:51:20;;;;;;;4.95;2.20;;;14.40;82.80;;;;;;5074355;28;20091;-61
2022/04/11 03:53:47;;;;;;;4.97;2.40;;;14.30;82.60;;;;;;5075512;28;20055;-62
2022/04/11 03:56:17;;;;;;;5.45;2.50;;;14.30;82.50;;;;;;5076757;28;20048;-63
2022/04/11 03:58:46;;;;;;;5.63;2.05;;;14.40;79.70;;;;;;5075423;28;20056;-64
2022/04/11 04:01:12;;;;;;;6.70;2.42;;;14.40;82.60;;;;;;5087086;28;20048;-64
2022/04/11 04:03:39;;;;;;;4.30;2.00;;;14.20;79.70;;;;;;5057350;28;20083;-62
2022/04/11 04:06:04;;;;;;;7.25;2.55;;;14.50;82.60;;;;;;5074970;28;20044;-62
2022/04/11 04:08:30;;;;;;;4.68;2.20;;;14.10;79.70;;;;;;5075098;28;20055;-62
2022/04/11 04:10:56;;;;;;;7.35;2.40;;;;;;;;;;5075586;28;20048;-62
2022/04/11 04:13:22;;;;;;;6.07;2.53;;;14.20;82.60;;;;;;5074890;28;20086;-63
2022/04/11 04:15:48;;;;;;;5.05;2.35;;;;;;;;;;5074918;28;20498;-63
2022/04/11 04:18:14;;;;;;;4.30;2.20;;;14.20;82.50;;;;;;5075510;28;20100;-62
2022/04/11 04:20:40;;;;;;;4.97;2.38;;;14.30;79.90;;;;;;5094129;28;20405;-62
2022/04/11 04:23:06;;;;;;;4.53;2.30;;;13.90;80.80;;;;;;5095186;28;20558;-63
2022/04/11 04:25:38;;;;;;;6.60;2.10;;;14.20;82.60;;;;;;5094792;28;20048;-63
2022/04/11 04:28:04;;;;;;;6.10;2.20;;;14.20;82.40;;;;;;5080828;28;20102;-63
2022/04/11 04:30:29;;;;;;;5.03;1.90;;;14.40;82.50;;;;;;5086431;28;20078;-62
2022/04/11 04:32:58;;;;;;;5.47;2.20;;;14.30;82.40;;;;;;5095042;28;20040;-62
2022/04/11 04:35:24;;;;;;;4.32;2.15;;;14.20;82.30;;;;;;5087896;28;20100;-62
2022/04/11 04:37:51;;;;;;;5.13;2.28;;;14.40;82.50;;;;;;5076280;28;20398;-63
2022/04/11 04:40:17;;;;;;;4.10;2.20;;;14.20;79.80;;;;;;5075451;28;20132;-62
2022/04/11 04:42:42;;;;;;;5.20;2.40;;;14.50;82.60;;;;;;5074205;28;20076;-63
2022/04/11 04:45:09;;;;;;;4.53;2.40;;;14.30;79.90;;;;;;5074217;28;20047;-62
2022/04/11 04:47:34;;;;;;;4.80;2.10;;;14.40;82.60;;;;;;5074430;28;20071;-61
2022/04/11 04:50:00;;;;;;;4.85;2.45;;;14.40;82.80;;;;;;5075166;28;20083;-62
2022/04/11 04:52:26;;;;;;;4.63;2.25;;;14.60;80.00;;;;;;5083802;28;20090;-62
2022/04/11 04:54:52;;;;;;;5.32;2.15;;;14.50;82.50;;;;;;5073818;28;20048;-62
2022/04/11 04:57:17;;;;;;;5.38;2.40;;;14.70;80.00;;;;;;5073995;28;20437;-62
2022/04/11 04:59:43;;;;;;;6.15;2.22;;;14.60;82.40;;;;;;5075139;28;20040;-62
2022/04/11 05:02:09;;;;;;;5.30;2.33;;;14.40;82.50;;;;;;5074325;28;20050;-62
2022/04/11 05:04:34;;;;;;;5.75;2.38;;;14.50;79.80;;;;;;5056039;28;20055;-61
2022/04/11 05:07:00;;;;;;;5.43;2.20;;;14.50;82.40;;;;;;5074096;28;20124;-62
2022/04/11 05:09:26;;;;;;;6.32;2.20;;;14.50;82.30;;;;;;5075475;28;20048;-61
2022/04/11 05:11:52;;;;;;;4.10;2.00;;;14.50;80.40;;;;;;5074827;28;20052;-62
2022/04/11 05:14:17;;;;;;;7.20;2.20;;;14.40;82.50;;;;;;5074276;28;20053;-62
2022/04/11 05:16:44;;;;;;;4.57;2.10;;;;;;;;;;5073972;28;20040;-61
2022/04/11 05:19:10;;;;;;;4.20;2.20;;;;;;;;;;5073855;28;20049;-62
2022/04/11 05:21:35;;;;;;;6.63;2.75;;;14.50;79.70;;;;;;5074709;28;20044;-62
2022/04/11 05:24:01;;;;;;;5.05;2.38;;;14.30;82.40;;;;;;5086541;28;20040;-61
2022/04/11 05:26:27;;;;;;;6.03;2.30;;;14.30;82.30;;;;;;5082252;28;20109;-61
2022/04/11 05:28:53;;;;;;;7.22;2.30;;;;;;;;;;5077975;28;20090;-63
2022/04/11 05:31:19;;;;;;;5.53;2.47;;;14.60;82.40;;;;;;5074482;28;20048;-61
2022/04/11 05:33:47;;;;;;;5.40;2.20;;;14.70;79.30;;;;;;5074565;28;20047;-62
2022/04/11 05:36:14;;;;;;;5.70;2.55;;;14.60;79.70;;;;;;5072146;28;20048;-61
2022/04/11 05:38:40;;;;;;;4.15;2.10;;;14.50;82.30;;;;;;5073680;28;20116;-63
2022/04/11 05:41:06;;;;;;;6.53;2.60;;;14.50;82.20;;;;;;5072415;28;20044;-62
2022/04/11 05:43:32;;;;;;;5.53;2.25;;;14.50;82.20;;;;;;5082438;28;20402;-63
2022/04/11 05:45:59;;;;;;;5.13;2.45;;;14.50;82.30;;;;;;5091681;28;20048;-62
2022/04/11 05:48:25;;;;;;;4.50;2.10;;;14.60;82.30;;;;;;5092583;28;20398;-62
2022/04/11 05:50:50;;;;;;;5.10;2.00;;;14.40;82.20;;;;;;5092123;28;20048;-61
2022/04/11 05:53:17;;;;;;;5.63;2.35;;;14.60;82.20;;;;;;5081356;28;20498;-62
2022/04/11 05:55:43;;;;;;;6.50;2.40;;;14.80;82.30;;;;;;5082047;28;20044;-62
2022/04/11 05:58:09;;;;;;;5.28;2.28;;;14.40;79.40;;;;;;5093405;28;20036;-62
2022/04/11 06:00:35;;;;;;;5.72;2.72;;;14.20;82.00;;;;;;5084789;28;20048;-62
2022/04/11 06:03:00;;;;;;;8.15;2.20;;;14.30;82.00;;;;;;5074567;28;20538;-62
2022/04/11 06:05:26;;;;;;;5.38;2.35;;;14.70;82.20;;;;;;5079836;28;20097;-61
2022/04/11 06:07:52;;;;;;;7.03;2.30;;;14.50;82.00;;;;;;5095202;28;20047;-62
2022/04/11 06:10:18;;;;;;;5.97;2.38;;;14.60;81.70;;;;;;5092796;28;20062;-64
2022/04/11 06:12:43;;;;;;;4.82;2.20;;;14.60;81.80;;;;;;5095194;28;20047;-67
2022/04/11 06:15:11;;;;;;;5.32;2.20;;;14.60;81.80;;;;;;5078836;28;20055;-65
2022/04/11 06:17:37;;;;;;;5.85;2.45;;;14.70;81.90;;;;;;5084483;28;20444;-66
2022/04/11 06:20:04;;;;;;;5.05;2.17;;;;;;;;;;5097050;28;20098;-66
2022/04/11 06:22:29;;;;;;;4.65;2.20;;;14.80;82.10;;;;;;5097021;28;20040;-68
2022/04/11 06:24:59;;;;;;;5.75;2.30;;;14.80;81.90;;;;;;5087717;28;20036;-66
2022/04/11 06:27:25;;;;;;;4.90;2.20;;;14.70;81.60;;;;;;5077570;28;20059;-69
2022/04/11 06:29:56;;;;;;;5.00;2.40;;;;;;;;;;5076744;28;20045;-63
2022/04/11 06:32:29;;;;;;;5.82;2.22;;;14.80;81.80;;;;;;5076053;28;20076;-62
2022/04/11 06:34:55;;;;;;;4.47;2.25;;;;;;;;;;5079729;28;20051;-62
2022/04/11 06:37:21;;;;;;;3.95;1.95;;;14.30;81.50;;;;;;5081461;28;20045;-62
2022/04/11 06:39:47;;;;;;;5.82;2.50;;;14.90;81.80;;;;;;5076717;28;20052;-63
2022/04/11 06:42:13;;;;;;;7.28;2.33;;;14.60;81.60;;;;;;5076158;28;20037;-62
2022/04/11 06:44:39;;;;;;;6.22;2.47;;;14.70;81.70;;;;;;5085734;28;20044;-65
2022/04/11 06:47:06;;;;;;;5.55;2.40;;;;;;;;;;5075943;28;20390;-65
2022/04/11 06:49:32;;;;;;;6.40;2.38;;;;;;;;;;5087222;28;20048;-65
2022/04/11 06:51:58;;;;;;;5.88;2.42;;;;;;;;;;5084477;28;20434;-65
2022/04/11 06:54:24;;;;;;;4.75;2.30;;;14.70;81.70;;;;;;5076583;28;20048;-66
2022/04/11 06:56:49;;;;;;;5.30;2.40;;;14.60;81.60;;;;;;5077002;28;20410;-65
2022/04/11 06:59:15;;;;;;;5.45;1.95;;;14.80;81.80;;;;;;5077157;28;20045;-65
2022/04/11 07:01:41;;;;;;;4.88;2.30;;;14.80;81.70;;;;;;5074321;28;20493;-65
2022/04/11 07:04:08;;;;;;;6.88;2.20;;;14.70;81.60;;;;;;5076192;28;20040;-64
2022/04/11 07:06:34;;;;;;;5.82;2.20;;;14.80;81.70;;;;;;5077109;28;20528;-62
2022/04/11 07:08:59;;;;;;;6.00;2.20;;;14.70;81.60;;;;;;5087426;28;20083;-63
2022/04/11 07:11:26;;;;;;;4.97;2.67;;;;;;;;;;5092751;28;20425;-63
2022/04/11 07:13:51;;;;;;;5.32;2.45;;;14.70;81.60;;;;;;5096245;28;20059;-64
2022/04/11 07:16:17;;;;;;;6.70;2.20;;;15.00;79.00;;;;;;5095352;28;20036;-66
2022/04/11 07:18:43;;;;;;;5.35;2.30;;;14.70;81.70;;;;;;5092629;28;20040;-67
2022/04/11 07:21:09;;;;;;;4.68;2.40;;;14.40;81.50;;;;;;5078229;28;20037;-66
2022/04/11 07:23:35;;;;;;;5.32;2.53;;;;;;;;;;5088412;28;20119;-67
2022/04/11 07:26:01;;;;;;;6.15;2.47;;;14.40;81.50;;;;;;5083192;28;20044;-66
2022/04/11 07:28:27;;;;;;;6.88;2.40;;;14.70;81.70;;;;;;5076474;28;20040;-66
2022/04/11 07:30:52;;;;;;;5.78;2.10;;;14.80;81.70;;;;;;5075839;28;20047;-65
2022/04/11 07:33:18;;;;;;;4.85;2.47;;;14.80;81.60;;;;;;5078681;28;20513;-65
2022/04/11 07:35:44;;;;;;;6.80;2.40;;;14.90;81.60;;;;;;5073950;28;20059;-64
2022/04/11 07:38:10;;;;;;;5.40;2.40;;;14.90;81.40;;;;;;5075377;28;20067;-64
2022/04/11 07:40:35;;;;;;;5.45;2.00;;;15.00;81.40;;;;;;5075315;28;20394;-64
2022/04/11 07:43:01;;;;;;;4.97;2.28;;;15.10;81.50;;;;;;5085259;28;20115;-66
2022/04/11 07:45:28;;;;;;;7.13;2.33;;;;;;;;;;5095481;28;20044;-64
2022/04/11 07:47:53;;;;;;;4.57;2.15;;;15.20;81.40;;;;;;5095026;28;20044;-66
2022/04/11 07:50:19;;;;;;;5.32;2.05;;;15.20;81.40;;;;;;5077693;28;20098;-65
2022/04/11 07:52:45;;;;;;;6.22;2.20;;;15.40;81.40;;;;;;5074207;28;20044;-66
2022/04/11 07:55:12;;;;;;;9.30;2.78;;;15.60;79.20;;;;;;5073850;28;20131;-67
2022/04/11 07:57:38;;;;;;;8.93;2.35;;;15.40;81.10;;;;;;5074787;28;20074;-65
2022/04/11 08:00:06;;;;;;;7.45;2.38;;;15.40;80.80;;;;;;5084780;28;20047;-65
2022/04/11 08:02:32;;;;;;;4.03;1.90;;;;;;;;;;5095036;28;20044;-65
2022/04/11 08:05:00;;;;;;;7.32;2.40;;;;;;;;;;5092936;28;20115;-66
2022/04/11 08:07:26;;;;;;;6.70;2.20;;;15.70;80.40;;;;;;5095157;28;20048;-66
2022/04/11 08:09:52;;;;;;;5.43;1.90;;;16.10;80.40;;;;;;5092721;28;20451;-67
2022/04/11 08:12:18;;;;;;;5.32;2.20;;;16.20;80.40;;;;;;5075794;28;20059;-67
2022/04/11 08:14:44;;;;;;;4.80;1.90;;;16.40;80.50;;;;;;5082233;28;20043;-66
2022/04/11 08:17:10;;;;;;;4.70;1.73;;;16.30;80.10;;;;;;5080880;28;20048;-66
2022/04/11 08:19:36;;;;;;;6.22;2.60;;;16.30;80.10;;;;;;5074497;28;20060;-67
2022/04/11 08:22:01;;;;;;;3.70;1.77;;;16.60;80.10;;;;;;5074335;28;20040;-66
2022/04/11 08:24:27;;;;;;;4.07;1.50;;;16.40;80.00;;;;;;5075071;28;20045;-62
2022/04/11 08:26:53;;;;;;;4.70;2.05;;;;;;;;;;5090811;28;20035;-62
2022/04/11 08:29:19;;;;;;;4.00;1.83;;;16.40;79.80;;;;;;5092769;28;20091;-66
2022/04/11 08:31:45;;;;;;;4.28;2.08;;;16.50;79.70;;;;;;5088841;28;20063;-67
2022/04/11 08:34:11;;;;;;;4.57;1.90;;;16.40;79.50;;;;;;5084213;28;20499;-66
2022/04/11 08:36:37;;;;;;;5.07;2.00;;;;;;;;;;5077878;28;20142;-63
2022/04/11 08:39:03;;;;;;;4.93;1.90;;;16.70;79.60;;;;;;5094392;28;20468;-61
2022/04/11 08:41:33;;;;;;;5.47;1.90;;;16.80;79.60;;;;;;5092920;28;20036;-62
2022/04/11 08:44:00;;;;;;;5.13;2.40;;;16.50;79.30;;;;;;5093385;28;20052;-62
2022/04/11 08:46:26;;;;;;;3.70;1.88;;;16.50;79.30;;;;;;5089253;28;20047;-63
2022/04/11 08:48:52;;;;;;;5.13;2.00;;;16.80;79.40;;;;;;5088850;28;20048;-64
2022/04/11 08:51:18;;;;;;;7.13;1.70;;;;;;;;;;5079697;28;20109;-64
2022/04/11 08:53:44;;;;;;;4.68;1.80;;;16.80;79.40;;;;;;5091777;28;20378;-64
2022/04/11 08:56:09;;;;;;;4.35;1.80;;;16.90;79.50;;;;;;5092759;28;20063;-64
2022/04/11 08:58:35;;;;;;;5.45;2.20;;;17.00;79.40;;;;;;5090543;28;20039;-63
2022/04/11 09:01:01;;;;;;;3.47;1.70;;;17.20;76.70;;;;;;5075831;28;20041;-66
2022/04/11 09:03:27;;;;;;;4.18;1.55;;;17.10;79.20;;;;;;5074125;28;20037;-63
2022/04/11 09:06:04;;;;;;;4.93;1.85;;;17.40;75.10;;;;;;5082626;28;20040;-67
2022/04/11 09:08:41;;;;;;;4.18;1.70;;;17.20;76.30;;;;;;5088856;28;20044;-66
2022/04/11 09:11:08;;;;;;;6.55;1.73;;;17.30;76.10;;;;;;5081290;28;20044;-68
2022/04/11 09:14:07;;;;;;;7.03;2.15;;;17.30;75.30;;;;;;5072665;28;20041;-68
2022/04/11 09:16:51;;;;;;;7.15;2.25;;;17.50;75.50;;;;;;5048256;28;20060;-67
2022/04/11 09:19:24;;;;;;;7.03;2.20;;;17.40;77.90;;;;;;5067166;28;20048;-67
2022/04/11 09:21:54;;;;;;;;;;;17.30;74.80;;;;;;5051042;28;20052;-66
2022/04/11 09:24:22;;;;;;;5.45;2.05;;;17.40;77.90;;;;;;5057262;28;19929;-67
2022/04/11 09:26:49;;;;;;;6.13;2.00;;;17.30;77.60;;;;;;5071206;28;20515;-68
2022/04/11 09:29:17;;;;;;;8.02;2.40;;;17.50;77.80;;;;;;5070808;28;20131;-67
2022/04/11 09:31:43;;;;;;;6.40;1.67;;;17.50;77.90;;;;;;5069708;28;20059;-66
2022/04/11 09:34:16;;;;;;;5.72;2.03;;;17.50;77.10;;;;;;5050986;28;20041;-66
2022/04/11 09:36:50;;;;;;;4.32;1.80;;;17.80;77.30;;;;;;5050818;28;20084;-67
2022/04/11 09:39:22;;;;;;;5.95;2.10;;;17.50;77.20;;;;;;5050839;28;20088;-66
2022/04/11 09:41:49;;;;;;;5.75;1.83;;;17.70;77.10;;;;;;5061516;28;20049;-66
2022/04/11 09:44:33;;;;;;;7.35;2.00;;;17.70;77.10;;;;;;5071236;28;20045;-67
2022/04/11 09:47:05;;;;;;;6.97;2.20;;;17.50;77.00;;;;;;5071129;28;20073;-69
2022/04/11 09:49:32;;;;;;;7.63;2.08;;;17.60;77.20;;;;;;5053906;28;20037;-67
2022/04/11 09:52:01;;;;;;;6.95;2.13;;;17.60;77.20;;;;;;5078690;28;20103;-65
2022/04/11 09:54:27;;;;;;;6.90;2.25;;;17.70;77.40;;;;;;5092050;28;20124;-64
2022/04/11 09:56:53;;;;;;;6.22;2.17;;;17.60;74.40;;;;;;5091983;28;20051;-63
2022/04/11 09:59:21;;;;;;;6.20;2.20;;;17.80;77.10;;;;;;5060351;28;20043;-65
2022/04/11 10:01:47;;;;;;;6.03;2.05;;;17.80;77.00;;;;;;5071875;28;20487;-63
2022/04/11 10:04:12;;;;;;;5.05;2.17;;;17.80;76.80;;;;;;5071924;28;20137;-64
2022/04/11 10:06:38;;;;;;;4.20;1.85;;;17.40;76.60;;;;;;5073375;28;20494;-64
2022/04/11 10:09:04;;;;;;;5.05;2.03;;;;;;;;;;5054733;28;20413;-67
2022/04/11 10:11:30;;;;;;;7.75;1.92;;;17.80;76.70;;;;;;5071229;28;20087;-69
2022/04/11 10:13:57;;;;;;;4.22;1.90;;;17.90;76.80;;;;;;5073978;28;20043;-63
2022/04/11 10:16:23;;;;;;;7.72;2.03;;;17.50;76.30;;;;;;5089348;28;20044;-64
2022/04/11 10:18:48;;;;;;;6.03;2.10;;;17.80;76.30;;;;;;5058132;28;20048;-63
2022/04/11 10:21:14;;;;;;;10.85;2.50;;;17.60;76.20;;;;;;5091413;28;20382;-71
2022/04/11 10:23:57;;;;;;;6.50;2.55;;;;;;;;;;5091698;28;20113;-63
2022/04/11 10:26:23;;;;;;;5.45;1.90;;;17.90;76.40;;;;;;5092651;28;20089;-63
2022/04/11 10:28:51;;;;;;;5.22;2.10;;;17.60;76.30;;;;;;5074946;28;20436;-69
2022/04/11 10:31:17;;;;;;;6.07;1.92;;;17.90;76.40;;;;;;5074588;28;20050;-65
2022/04/11 10:33:49;;;;;;;4.90;1.92;;;17.90;76.30;;;;;;5084698;28;20040;-66
2022/04/11 10:36:38;;;;;;;5.45;1.70;;;17.60;76.00;;;;;;5088806;28;20048;-64
2022/04/11 10:39:12;;;;;;;4.88;1.90;;;17.80;75.90;;;;;;5033177;28;20107;-66
2022/04/11 10:41:56;;;;;;;5.88;2.22;;;18.00;71.30;;;;;;5049978;28;20060;-66
2022/04/11 10:44:39;;;;;;;4.78;1.77;;;18.00;75.80;;;;;;5033716;28;20095;-66
2022/04/11 10:47:08;;;;;;;4.57;1.52;;;18.00;75.70;;;;;;5050476;28;20076;-70
2022/04/11 10:50:01;;;;;;;4.25;1.70;;;18.10;72.70;;;;;;5059164;28;20088;-65
2022/04/11 10:54:57;;;;;;;19.33;5.72;;;18.10;75.80;;;;;;4986738;28;20089;-71
2022/04/11 10:57:48;;;;;;;19.02;5.95;;;18.20;76.00;;;;;;4986256;28;20062;-65
2022/04/11 11:00:14;;;;;;;15.00;5.47;;;17.90;75.90;;;;;;4994047;28;20121;-73
2022/04/11 11:02:49;;;;;;;17.02;5.20;;;18.20;76.00;;;;;;4990009;28;20050;-63
2022/04/11 11:05:36;;;;;;;15.75;5.15;;;18.20;72.00;;;;;;4975180;28;20489;-63
2022/04/11 11:08:11;;;;;;;11.90;4.80;;;18.10;76.00;;;;;;4975069;28;20094;-65
2022/04/11 11:10:49;;;;;;;11.90;4.82;;;18.70;76.30;;;;;;4974211;28;20082;-64
2022/04/11 11:13:30;;;;;;;11.02;4.45;;;;;;;;;;4967887;28;20185;-67
2022/04/11 11:15:57;;;;;;;10.48;3.70;;;18.70;73.00;;;;;;5001792;28;20495;-63
2022/04/11 11:18:23;;;;;;;11.43;3.60;;;18.70;76.00;;;;;;5012447;28;20045;-64
2022/04/11 11:20:58;;;;;;;11.82;3.10;;;18.50;75.70;;;;;;4997207;28;20042;-63
2022/04/11 11:23:26;;;;;;;10.93;3.20;;;18.60;75.90;;;;;;5008212;28;20049;-63
2022/04/11 11:25:53;;;;;;;9.85;3.88;;;18.80;76.10;;;;;;5033499;28;20048;-66
2022/04/11 11:28:18;;;;;;;10.65;3.00;;;18.60;76.10;;;;;;5013768;28;20574;-63
2022/04/11 11:30:44;;;;;;;7.30;3.03;;;18.60;76.00;;;;;;5076480;28;20208;-65
2022/04/11 11:33:13;;;;;;;11.15;3.03;;;18.90;76.20;;;;;;5075462;28;20045;-62
2022/04/11 11:35:51;;;;;;;8.73;2.47;;;18.70;75.90;;;;;;5079320;28;20040;-66
2022/04/11 11:38:22;;;;;;;7.72;2.63;;;18.80;76.10;;;;;;5091688;28;20082;-70
2022/04/11 11:40:55;;;;;;;10.23;3.10;;;18.90;76.10;;;;;;5085097;28;20461;-71
2022/04/11 11:43:22;;;;;;;7.82;2.55;;;;;;;;;;5075484;28;20371;-64
2022/04/11 11:45:48;;;;;;;7.45;2.58;;;18.90;72.30;;;;;;5086795;28;20048;-68
2022/04/11 11:48:26;;;;;;;7.25;2.15;;;19.00;71.90;;;;;;5094168;28;20044;-68
2022/04/11 11:50:55;;;;;;;6.78;2.10;;;18.90;73.40;;;;;;5074697;28;20139;-68
2022/04/11 11:53:21;;;;;;;6.97;2.10;;;19.00;72.70;;;;;;5075008;28;20056;-63
2022/04/11 11:55:55;;;;;;;8.07;1.98;;;19.00;76.50;;;;;;5076296;28;20059;-72
2022/04/11 11:58:21;;;;;;;7.38;2.10;;;18.80;76.10;;;;;;5088568;28;20046;-68
2022/04/11 12:00:48;;;;;;;7.90;2.20;;;19.10;74.40;;;;;;5090220;28;20048;-67
2022/04/11 12:05:59;;;;;;;7.80;2.30;;;19.10;76.20;;;;;;5092354;28;20094;-67
2022/04/11 12:08:30;;;;;;;6.32;1.90;;;;;;;;;;5084597;28;20040;-69
2022/04/11 12:10:57;;;;;;;7.95;2.17;;;19.20;76.00;;;;;;5081306;28;20135;-72
2022/04/11 12:13:30;;;;;;;7.47;2.15;;;19.10;71.40;;;;;;5076657;28;20370;-74
2022/04/11 12:16:15;;;;;;;10.68;2.50;;;19.10;75.90;;;;;;5073451;28;20482;-74
2022/04/11 12:18:54;;;;;;;8.65;2.08;;;19.10;75.90;;;;;;5073650;28;20048;-74
2022/04/11 12:21:29;;;;;;;5.72;1.75;;;19.20;73.20;;;;;;5073188;28;20060;-72
2022/04/11 12:23:54;;;;;;;6.80;2.10;;;19.10;76.00;;;;;;5092670;28;20051;-74
2022/04/11 12:26:51;;;;;;;4.57;2.10;;;19.20;73.20;;;;;;5094960;28;20051;-74
2022/04/11 12:29:18;;;;;;;5.60;2.03;;;19.10;75.90;;;;;;5072193;28;20060;-74
2022/04/11 12:31:56;;;;;;;4.88;1.83;;;19.20;75.90;;;;;;5062104;28;20461;-74
2022/04/11 12:34:37;;;;;;;4.72;1.77;;;19.10;75.90;;;;;;5052536;28;20057;-75
2022/04/11 12:37:05;;;;;;;3.72;1.65;;;19.20;76.10;;;;;;5040795;28;20056;-74
2022/04/11 12:39:31;;;;;;;5.70;2.10;;;19.30;76.20;;;;;;5055200;28;20139;-74
2022/04/11 12:41:57;;;;;;;5.80;2.10;;;19.10;73.60;;;;;;5071582;28;20044;-74
2022/04/11 12:44:35;;;;;;;7.63;1.90;;;19.20;76.10;;;;;;5053590;28;20090;-74
2022/04/11 12:47:01;;;;;;;7.18;2.50;;;19.10;75.90;;;;;;5072083;28;20060;-74
2022/04/11 12:50:02;;;;;;;6.13;1.90;;;19.20;75.70;;;;;;5039691;28;20376;-72
2022/04/11 12:52:29;;;;;;;6.10;2.00;;;19.30;75.90;;;;;;4959276;28;20124;-74
2022/04/11 12:55:04;;;;;;;6.40;1.98;;;19.30;71.40;;;;;;4998672;28;20062;-73
2022/04/11 12:57:32;;;;;;;6.85;2.10;;;19.20;76.00;;;;;;4976256;28;20050;-74
2022/04/11 13:00:18;;;;;;;5.82;2.05;;;19.40;73.10;;;;;;4992457;28;20069;-74
2022/04/11 13:02:44;;;;;;;7.93;2.22;;;19.30;75.80;;;;;;4991871;28;20121;-74
2022/04/11 13:05:13;;;;;;;5.35;2.20;;;19.30;75.70;;;;;;4984655;28;20053;-72
2022/04/11 13:07:39;;;;;;;8.25;2.50;;;19.10;75.90;;;;;;5022563;28;20088;-74